sensor_id;sensor_type;location;lat;lon;timestamp;P1;durP1;ratioP1;P2;durP2;ratioP2
2656;SDS011;1338;48.176;11.792;2023-02-28T00:01:26;5.50;;;4.93;;
2656;SDS011;1338;48.176;11.792;2023-02-28T00:03:55;7.63;;;4.90;;
2656;SDS011;1338;48.176;11.792;2023-02-28T00:06:23;6.67;;;5.00;;
2656;SDS011;1338;48.176;11.792;2023-02-28T00:08:52;5.60;;;4.70;;
2656;SDS011;1338;48.176;11.792;2023-02-28T00:11:21;5.30;;;4.80;;
2656;SDS011;1338;48.176;11.792;2023-02-28T00:13:49;4.93;;;4.43;;
2656;SDS011;1338;48.176;11.792;2023-02-28T00:16:18;4.87;;;4.37;;
2656;SDS011;1338;48.176;11.792;2023-02-28T00:18:48;5.93;;;4.90;;
2656;SDS011;1338;48.176;11.792;2023-02-28T00:21:17;5.07;;;4.67;;
2656;SDS011;1338;48.176;11.792;2023-02-28T00:23:46;5.30;;;4.60;;
2656;SDS011;1338;48.176;11.792;2023-02-28T00:26:15;5.47;;;4.80;;
2656;SDS011;1338;48.176;11.792;2023-02-28T00:28:48;5.73;;;5.17;;
2656;SDS011;1338;48.176;11.792;2023-02-28T00:31:16;5.40;;;4.90;;
2656;SDS011;1338;48.176;11.792;2023-02-28T00:33:44;5.10;;;4.60;;
2656;SDS011;1338;48.176;11.792;2023-02-28T00:36:13;4.70;;;4.30;;
2656;SDS011;1338;48.176;11.792;2023-02-28T00:38:41;5.47;;;4.97;;
2656;SDS011;1338;48.176;11.792;2023-02-28T00:41:09;4.80;;;4.40;;
2656;SDS011;1338;48.176;11.792;2023-02-28T00:43:38;5.90;;;5.17;;
2656;SDS011;1338;48.176;11.792;2023-02-28T00:46:08;6.10;;;4.90;;
2656;SDS011;1338;48.176;11.792;2023-02-28T00:48:36;5.00;;;4.20;;
2656;SDS011;1338;48.176;11.792;2023-02-28T00:51:04;5.30;;;4.63;;
2656;SDS011;1338;48.176;11.792;2023-02-28T00:53:33;5.17;;;4.67;;
2656;SDS011;1338;48.176;11.792;2023-02-28T00:56:01;5.37;;;4.83;;
2656;SDS011;1338;48.176;11.792;2023-02-28T00:58:30;5.43;;;4.93;;
2656;SDS011;1338;48.176;11.792;2023-02-28T01:00:58;5.57;;;5.00;;
2656;SDS011;1338;48.176;11.792;2023-02-28T01:03:29;5.17;;;4.67;;
2656;SDS011;1338;48.176;11.792;2023-02-28T01:05:57;5.47;;;4.80;;
2656;SDS011;1338;48.176;11.792;2023-02-28T01:08:26;6.03;;;4.70;;
2656;SDS011;1338;48.176;11.792;2023-02-28T01:10:54;5.50;;;4.70;;
2656;SDS011;1338;48.176;11.792;2023-02-28T01:13:22;5.70;;;5.20;;
2656;SDS011;1338;48.176;11.792;2023-02-28T01:15:52;5.67;;;4.90;;
2656;SDS011;1338;48.176;11.792;2023-02-28T01:18:23;5.67;;;5.03;;
2656;SDS011;1338;48.176;11.792;2023-02-28T01:20:53;5.03;;;4.53;;
2656;SDS011;1338;48.176;11.792;2023-02-28T01:23:22;5.07;;;4.57;;
2656;SDS011;1338;48.176;11.792;2023-02-28T01:25:50;4.97;;;4.47;;
2656;SDS011;1338;48.176;11.792;2023-02-28T01:28:19;5.67;;;5.17;;
2656;SDS011;1338;48.176;11.792;2023-02-28T01:30:48;5.07;;;4.40;;
2656;SDS011;1338;48.176;11.792;2023-02-28T01:33:17;5.20;;;4.70;;
2656;SDS011;1338;48.176;11.792;2023-02-28T01:35:46;5.07;;;4.50;;
2656;SDS011;1338;48.176;11.792;2023-02-28T01:38:15;5.27;;;4.77;;
2656;SDS011;1338;48.176;11.792;2023-02-28T01:40:49;4.70;;;4.30;;
2656;SDS011;1338;48.176;11.792;2023-02-28T01:43:19;5.23;;;4.73;;
2656;SDS011;1338;48.176;11.792;2023-02-28T01:45:50;7.37;;;4.50;;
2656;SDS011;1338;48.176;11.792;2023-02-28T01:48:20;6.20;;;5.60;;
2656;SDS011;1338;48.176;11.792;2023-02-28T01:50:52;5.53;;;4.93;;
2656;SDS011;1338;48.176;11.792;2023-02-28T01:53:26;5.00;;;4.47;;
2656;SDS011;1338;48.176;11.792;2023-02-28T01:56:01;6.37;;;5.00;;
2656;SDS011;1338;48.176;11.792;2023-02-28T01:58:32;4.90;;;4.40;;
2656;SDS011;1338;48.176;11.792;2023-02-28T02:01:01;5.70;;;4.70;;
2656;SDS011;1338;48.176;11.792;2023-02-28T02:03:31;6.33;;;5.07;;
2656;SDS011;1338;48.176;11.792;2023-02-28T02:06:01;5.57;;;4.37;;
2656;SDS011;1338;48.176;11.792;2023-02-28T02:08:31;5.53;;;5.00;;
2656;SDS011;1338;48.176;11.792;2023-02-28T02:10:59;4.90;;;4.40;;
2656;SDS011;1338;48.176;11.792;2023-02-28T02:13:32;5.53;;;4.80;;
2656;SDS011;1338;48.176;11.792;2023-02-28T02:16:13;6.80;;;5.23;;
2656;SDS011;1338;48.176;11.792;2023-02-28T02:18:53;5.87;;;4.80;;
2656;SDS011;1338;48.176;11.792;2023-02-28T02:24:46;5.33;;;4.83;;
2656;SDS011;1338;48.176;11.792;2023-02-28T02:27:28;5.80;;;5.20;;
2656;SDS011;1338;48.176;11.792;2023-02-28T02:33:24;5.53;;;5.03;;
2656;SDS011;1338;48.176;11.792;2023-02-28T02:36:08;6.40;;;5.80;;
2656;SDS011;1338;48.176;11.792;2023-02-28T02:38:42;5.57;;;5.00;;
2656;SDS011;1338;48.176;11.792;2023-02-28T02:41:17;6.13;;;4.80;;
2656;SDS011;1338;48.176;11.792;2023-02-28T02:43:51;5.77;;;5.03;;
2656;SDS011;1338;48.176;11.792;2023-02-28T02:46:25;5.43;;;4.43;;
2656;SDS011;1338;48.176;11.792;2023-02-28T02:48:57;6.10;;;5.10;;
2656;SDS011;1338;48.176;11.792;2023-02-28T02:51:29;6.90;;;4.87;;
2656;SDS011;1338;48.176;11.792;2023-02-28T02:54:02;5.80;;;5.30;;
2656;SDS011;1338;48.176;11.792;2023-02-28T02:56:33;6.30;;;5.13;;
2656;SDS011;1338;48.176;11.792;2023-02-28T02:59:04;7.37;;;4.67;;
2656;SDS011;1338;48.176;11.792;2023-02-28T03:01:36;6.43;;;5.33;;
2656;SDS011;1338;48.176;11.792;2023-02-28T03:04:08;5.43;;;4.93;;
2656;SDS011;1338;48.176;11.792;2023-02-28T03:06:39;6.33;;;5.00;;
2656;SDS011;1338;48.176;11.792;2023-02-28T03:09:08;6.10;;;5.50;;
2656;SDS011;1338;48.176;11.792;2023-02-28T03:11:38;5.60;;;5.10;;
2656;SDS011;1338;48.176;11.792;2023-02-28T03:14:09;6.27;;;5.50;;
2656;SDS011;1338;48.176;11.792;2023-02-28T03:19:45;7.27;;;6.10;;
2656;SDS011;1338;48.176;11.792;2023-02-28T03:22:27;6.43;;;5.07;;
2656;SDS011;1338;48.176;11.792;2023-02-28T03:25:08;6.00;;;5.40;;
2656;SDS011;1338;48.176;11.792;2023-02-28T03:27:40;7.10;;;5.80;;
2656;SDS011;1338;48.176;11.792;2023-02-28T03:30:10;5.67;;;5.10;;
2656;SDS011;1338;48.176;11.792;2023-02-28T03:32:49;10.13;;;6.30;;
2656;SDS011;1338;48.176;11.792;2023-02-28T03:35:22;6.90;;;6.13;;
2656;SDS011;1338;48.176;11.792;2023-02-28T03:37:55;8.10;;;6.50;;
2656;SDS011;1338;48.176;11.792;2023-02-28T03:40:28;7.83;;;6.43;;
2656;SDS011;1338;48.176;11.792;2023-02-28T03:43:04;7.30;;;6.27;;
2656;SDS011;1338;48.176;11.792;2023-02-28T03:45:39;9.03;;;6.60;;
2656;SDS011;1338;48.176;11.792;2023-02-28T03:48:11;6.20;;;5.60;;
2656;SDS011;1338;48.176;11.792;2023-02-28T03:50:42;7.47;;;6.77;;
2656;SDS011;1338;48.176;11.792;2023-02-28T03:53:15;7.97;;;7.17;;
2656;SDS011;1338;48.176;11.792;2023-02-28T03:55:47;8.63;;;6.67;;
2656;SDS011;1338;48.176;11.792;2023-02-28T03:58:20;9.50;;;6.63;;
2656;SDS011;1338;48.176;11.792;2023-02-28T04:00:54;7.03;;;5.97;;
2656;SDS011;1338;48.176;11.792;2023-02-28T04:03:25;8.80;;;7.53;;
2656;SDS011;1338;48.176;11.792;2023-02-28T04:05:54;7.00;;;6.00;;
2656;SDS011;1338;48.176;11.792;2023-02-28T04:08:25;8.30;;;6.87;;
2656;SDS011;1338;48.176;11.792;2023-02-28T04:10:55;11.20;;;7.40;;
2656;SDS011;1338;48.176;11.792;2023-02-28T04:13:25;7.80;;;7.00;;
2656;SDS011;1338;48.176;11.792;2023-02-28T04:15:53;8.40;;;7.53;;
2656;SDS011;1338;48.176;11.792;2023-02-28T04:18:21;8.70;;;7.20;;
2656;SDS011;1338;48.176;11.792;2023-02-28T04:20:49;9.23;;;8.17;;
2656;SDS011;1338;48.176;11.792;2023-02-28T04:23:17;9.40;;;7.67;;
2656;SDS011;1338;48.176;11.792;2023-02-28T04:25:46;9.37;;;8.33;;
2656;SDS011;1338;48.176;11.792;2023-02-28T04:28:15;9.23;;;7.00;;
2656;SDS011;1338;48.176;11.792;2023-02-28T04:30:43;8.70;;;7.60;;
2656;SDS011;1338;48.176;11.792;2023-02-28T04:33:11;11.17;;;7.80;;
2656;SDS011;1338;48.176;11.792;2023-02-28T04:35:40;10.57;;;8.40;;
2656;SDS011;1338;48.176;11.792;2023-02-28T04:38:08;10.27;;;8.20;;
2656;SDS011;1338;48.176;11.792;2023-02-28T04:40:36;9.57;;;8.10;;
2656;SDS011;1338;48.176;11.792;2023-02-28T04:43:05;10.90;;;8.30;;
2656;SDS011;1338;48.176;11.792;2023-02-28T04:45:33;11.67;;;8.60;;
2656;SDS011;1338;48.176;11.792;2023-02-28T04:48:02;10.80;;;8.83;;
2656;SDS011;1338;48.176;11.792;2023-02-28T04:50:30;10.73;;;8.40;;
2656;SDS011;1338;48.176;11.792;2023-02-28T04:52:58;10.37;;;8.03;;
2656;SDS011;1338;48.176;11.792;2023-02-28T04:55:26;10.63;;;8.63;;
2656;SDS011;1338;48.176;11.792;2023-02-28T04:57:54;11.27;;;8.27;;
2656;SDS011;1338;48.176;11.792;2023-02-28T05:00:24;11.30;;;9.27;;
2656;SDS011;1338;48.176;11.792;2023-02-28T05:02:52;11.23;;;8.43;;
2656;SDS011;1338;48.176;11.792;2023-02-28T05:05:20;11.80;;;9.90;;
2656;SDS011;1338;48.176;11.792;2023-02-28T05:07:48;11.10;;;8.90;;
2656;SDS011;1338;48.176;11.792;2023-02-28T05:10:16;12.13;;;9.33;;
2656;SDS011;1338;48.176;11.792;2023-02-28T05:12:44;12.07;;;9.50;;
2656;SDS011;1338;48.176;11.792;2023-02-28T05:15:14;11.97;;;9.37;;
2656;SDS011;1338;48.176;11.792;2023-02-28T05:17:44;12.17;;;10.17;;
2656;SDS011;1338;48.176;11.792;2023-02-28T05:20:13;12.80;;;10.00;;
2656;SDS011;1338;48.176;11.792;2023-02-28T05:22:41;11.60;;;9.27;;
2656;SDS011;1338;48.176;11.792;2023-02-28T05:25:10;10.57;;;9.30;;
2656;SDS011;1338;48.176;11.792;2023-02-28T05:27:42;12.23;;;10.40;;
2656;SDS011;1338;48.176;11.792;2023-02-28T05:30:10;11.97;;;9.40;;
2656;SDS011;1338;48.176;11.792;2023-02-28T05:32:40;12.27;;;9.87;;
2656;SDS011;1338;48.176;11.792;2023-02-28T05:35:11;12.10;;;10.20;;
2656;SDS011;1338;48.176;11.792;2023-02-28T05:37:39;11.87;;;10.37;;
2656;SDS011;1338;48.176;11.792;2023-02-28T05:40:08;14.20;;;10.70;;
2656;SDS011;1338;48.176;11.792;2023-02-28T05:42:37;10.80;;;8.73;;
2656;SDS011;1338;48.176;11.792;2023-02-28T05:45:06;12.63;;;10.10;;
2656;SDS011;1338;48.176;11.792;2023-02-28T05:47:35;12.60;;;10.43;;
2656;SDS011;1338;48.176;11.792;2023-02-28T05:50:03;13.97;;;11.10;;
2656;SDS011;1338;48.176;11.792;2023-02-28T05:52:34;12.67;;;9.43;;
2656;SDS011;1338;48.176;11.792;2023-02-28T05:55:02;11.63;;;10.30;;
2656;SDS011;1338;48.176;11.792;2023-02-28T05:57:31;15.43;;;8.93;;
2656;SDS011;1338;48.176;11.792;2023-02-28T05:59:59;14.77;;;9.70;;
2656;SDS011;1338;48.176;11.792;2023-02-28T06:02:38;17.93;;;11.60;;
2656;SDS011;1338;48.176;11.792;2023-02-28T06:05:08;12.60;;;10.90;;
2656;SDS011;1338;48.176;11.792;2023-02-28T06:07:42;12.20;;;9.37;;
2656;SDS011;1338;48.176;11.792;2023-02-28T06:10:11;16.00;;;11.37;;
2656;SDS011;1338;48.176;11.792;2023-02-28T06:12:40;13.60;;;12.13;;
2656;SDS011;1338;48.176;11.792;2023-02-28T06:15:10;12.77;;;9.47;;
2656;SDS011;1338;48.176;11.792;2023-02-28T06:17:41;13.90;;;11.90;;
2656;SDS011;1338;48.176;11.792;2023-02-28T06:20:10;16.37;;;12.43;;
2656;SDS011;1338;48.176;11.792;2023-02-28T06:22:42;15.53;;;11.73;;
2656;SDS011;1338;48.176;11.792;2023-02-28T06:25:10;15.60;;;11.90;;
2656;SDS011;1338;48.176;11.792;2023-02-28T06:27:38;16.40;;;11.97;;
2656;SDS011;1338;48.176;11.792;2023-02-28T06:30:07;15.70;;;11.93;;
2656;SDS011;1338;48.176;11.792;2023-02-28T06:32:37;15.93;;;12.30;;
2656;SDS011;1338;48.176;11.792;2023-02-28T06:35:06;14.60;;;10.80;;
2656;SDS011;1338;48.176;11.792;2023-02-28T06:37:34;17.40;;;12.60;;
2656;SDS011;1338;48.176;11.792;2023-02-28T06:40:09;16.97;;;12.30;;
2656;SDS011;1338;48.176;11.792;2023-02-28T06:42:39;14.90;;;12.60;;
2656;SDS011;1338;48.176;11.792;2023-02-28T06:45:08;14.50;;;11.23;;
2656;SDS011;1338;48.176;11.792;2023-02-28T06:47:37;14.93;;;11.37;;
2656;SDS011;1338;48.176;11.792;2023-02-28T06:50:07;13.80;;;12.30;;
2656;SDS011;1338;48.176;11.792;2023-02-28T06:52:36;13.30;;;9.73;;
2656;SDS011;1338;48.176;11.792;2023-02-28T06:55:05;17.33;;;10.57;;
2656;SDS011;1338;48.176;11.792;2023-02-28T06:57:36;13.13;;;10.40;;
2656;SDS011;1338;48.176;11.792;2023-02-28T07:00:05;13.97;;;9.40;;
2656;SDS011;1338;48.176;11.792;2023-02-28T07:02:35;17.17;;;11.33;;
2656;SDS011;1338;48.176;11.792;2023-02-28T07:05:04;13.20;;;10.83;;
2656;SDS011;1338;48.176;11.792;2023-02-28T07:07:33;13.80;;;10.40;;
2656;SDS011;1338;48.176;11.792;2023-02-28T07:10:02;14.50;;;11.47;;
2656;SDS011;1338;48.176;11.792;2023-02-28T07:12:32;14.70;;;10.50;;
2656;SDS011;1338;48.176;11.792;2023-02-28T07:15:00;11.43;;;10.23;;
2656;SDS011;1338;48.176;11.792;2023-02-28T07:17:29;14.47;;;11.13;;
2656;SDS011;1338;48.176;11.792;2023-02-28T07:19:57;12.57;;;9.90;;
2656;SDS011;1338;48.176;11.792;2023-02-28T07:22:26;15.87;;;11.60;;
2656;SDS011;1338;48.176;11.792;2023-02-28T07:24:54;15.57;;;11.50;;
2656;SDS011;1338;48.176;11.792;2023-02-28T07:27:23;19.60;;;14.30;;
2656;SDS011;1338;48.176;11.792;2023-02-28T07:29:53;18.33;;;13.47;;
2656;SDS011;1338;48.176;11.792;2023-02-28T07:32:22;15.13;;;11.30;;
2656;SDS011;1338;48.176;11.792;2023-02-28T07:34:50;16.60;;;14.03;;
2656;SDS011;1338;48.176;11.792;2023-02-28T07:37:19;15.87;;;12.00;;
2656;SDS011;1338;48.176;11.792;2023-02-28T07:39:47;17.40;;;13.17;;
2656;SDS011;1338;48.176;11.792;2023-02-28T07:42:16;17.43;;;13.23;;
2656;SDS011;1338;48.176;11.792;2023-02-28T07:44:44;15.13;;;12.33;;
2656;SDS011;1338;48.176;11.792;2023-02-28T07:47:14;19.10;;;13.77;;
2656;SDS011;1338;48.176;11.792;2023-02-28T07:49:42;17.90;;;11.93;;
2656;SDS011;1338;48.176;11.792;2023-02-28T07:52:10;18.47;;;13.07;;
2656;SDS011;1338;48.176;11.792;2023-02-28T07:54:38;20.43;;;13.43;;
2656;SDS011;1338;48.176;11.792;2023-02-28T07:57:07;15.00;;;12.13;;
2656;SDS011;1338;48.176;11.792;2023-02-28T07:59:35;17.70;;;12.33;;
2656;SDS011;1338;48.176;11.792;2023-02-28T08:02:03;17.27;;;14.03;;
2656;SDS011;1338;48.176;11.792;2023-02-28T08:04:33;15.20;;;11.80;;
2656;SDS011;1338;48.176;11.792;2023-02-28T08:07:01;15.73;;;11.73;;
2656;SDS011;1338;48.176;11.792;2023-02-28T08:09:29;18.03;;;13.57;;
2656;SDS011;1338;48.176;11.792;2023-02-28T08:11:58;15.77;;;11.30;;
2656;SDS011;1338;48.176;11.792;2023-02-28T08:14:26;16.93;;;13.70;;
2656;SDS011;1338;48.176;11.792;2023-02-28T08:16:56;15.90;;;12.33;;
2656;SDS011;1338;48.176;11.792;2023-02-28T08:24:34;15.43;;;13.10;;
2656;SDS011;1338;48.176;11.792;2023-02-28T08:27:03;17.33;;;13.23;;
2656;SDS011;1338;48.176;11.792;2023-02-28T08:29:32;15.70;;;11.90;;
2656;SDS011;1338;48.176;11.792;2023-02-28T08:37:39;14.57;;;10.00;;
2656;SDS011;1338;48.176;11.792;2023-02-28T08:40:07;17.73;;;13.13;;
2656;SDS011;1338;48.176;11.792;2023-02-28T08:42:39;15.70;;;13.27;;
2656;SDS011;1338;48.176;11.792;2023-02-28T08:45:07;17.43;;;12.70;;
2656;SDS011;1338;48.176;11.792;2023-02-28T08:47:36;14.87;;;12.87;;
2656;SDS011;1338;48.176;11.792;2023-02-28T08:50:04;16.03;;;12.90;;
2656;SDS011;1338;48.176;11.792;2023-02-28T08:52:33;12.30;;;10.00;;
2656;SDS011;1338;48.176;11.792;2023-02-28T08:55:02;16.77;;;12.50;;
2656;SDS011;1338;48.176;11.792;2023-02-28T08:57:31;19.80;;;14.07;;
2656;SDS011;1338;48.176;11.792;2023-02-28T08:59:59;18.03;;;14.37;;
2656;SDS011;1338;48.176;11.792;2023-02-28T09:02:30;17.80;;;13.00;;
2656;SDS011;1338;48.176;11.792;2023-02-28T09:04:58;14.87;;;13.30;;
2656;SDS011;1338;48.176;11.792;2023-02-28T09:07:26;17.30;;;13.33;;
2656;SDS011;1338;48.176;11.792;2023-02-28T09:09:54;18.10;;;12.43;;
2656;SDS011;1338;48.176;11.792;2023-02-28T09:12:26;17.53;;;12.67;;
2656;SDS011;1338;48.176;11.792;2023-02-28T09:14:55;16.40;;;12.50;;
2656;SDS011;1338;48.176;11.792;2023-02-28T09:17:23;16.47;;;13.27;;
2656;SDS011;1338;48.176;11.792;2023-02-28T09:19:56;16.33;;;13.20;;
2656;SDS011;1338;48.176;11.792;2023-02-28T09:22:24;17.00;;;13.10;;
2656;SDS011;1338;48.176;11.792;2023-02-28T09:24:52;15.50;;;13.23;;
2656;SDS011;1338;48.176;11.792;2023-02-28T09:27:20;16.87;;;13.07;;
2656;SDS011;1338;48.176;11.792;2023-02-28T09:29:50;18.50;;;13.57;;
2656;SDS011;1338;48.176;11.792;2023-02-28T09:32:18;16.70;;;13.10;;
2656;SDS011;1338;48.176;11.792;2023-02-28T09:34:46;19.43;;;13.80;;
2656;SDS011;1338;48.176;11.792;2023-02-28T09:37:14;18.17;;;14.03;;
2656;SDS011;1338;48.176;11.792;2023-02-28T09:39:42;15.60;;;11.93;;
2656;SDS011;1338;48.176;11.792;2023-02-28T09:42:13;17.27;;;14.50;;
2656;SDS011;1338;48.176;11.792;2023-02-28T09:44:58;15.63;;;11.80;;
2656;SDS011;1338;48.176;11.792;2023-02-28T09:47:30;17.20;;;14.43;;
2656;SDS011;1338;48.176;11.792;2023-02-28T09:50:03;16.00;;;12.23;;
2656;SDS011;1338;48.176;11.792;2023-02-28T09:52:40;15.87;;;12.53;;
2656;SDS011;1338;48.176;11.792;2023-02-28T09:55:15;18.90;;;14.10;;
2656;SDS011;1338;48.176;11.792;2023-02-28T09:57:51;20.00;;;14.60;;
2656;SDS011;1338;48.176;11.792;2023-02-28T10:00:22;15.47;;;12.67;;
2656;SDS011;1338;48.176;11.792;2023-02-28T10:02:58;19.10;;;15.50;;
2656;SDS011;1338;48.176;11.792;2023-02-28T10:05:41;17.47;;;14.70;;
2656;SDS011;1338;48.176;11.792;2023-02-28T10:08:18;18.63;;;14.77;;
2656;SDS011;1338;48.176;11.792;2023-02-28T10:10:51;15.40;;;13.47;;
2656;SDS011;1338;48.176;11.792;2023-02-28T10:13:25;16.47;;;13.83;;
2656;SDS011;1338;48.176;11.792;2023-02-28T10:16:02;17.63;;;12.77;;
2656;SDS011;1338;48.176;11.792;2023-02-28T10:18:37;18.90;;;14.93;;
2656;SDS011;1338;48.176;11.792;2023-02-28T10:21:13;15.50;;;12.30;;
2656;SDS011;1338;48.176;11.792;2023-02-28T10:23:46;16.43;;;14.17;;
2656;SDS011;1338;48.176;11.792;2023-02-28T10:26:16;18.90;;;14.10;;
2656;SDS011;1338;48.176;11.792;2023-02-28T10:28:45;15.63;;;12.43;;
2656;SDS011;1338;48.176;11.792;2023-02-28T10:31:16;17.87;;;14.53;;
2656;SDS011;1338;48.176;11.792;2023-02-28T10:33:46;17.93;;;14.73;;
2656;SDS011;1338;48.176;11.792;2023-02-28T10:36:15;16.80;;;14.77;;
2656;SDS011;1338;48.176;11.792;2023-02-28T10:38:45;15.33;;;12.43;;
2656;SDS011;1338;48.176;11.792;2023-02-28T10:41:15;19.70;;;14.10;;
2656;SDS011;1338;48.176;11.792;2023-02-28T10:43:53;15.40;;;13.77;;
2656;SDS011;1338;48.176;11.792;2023-02-28T10:46:42;16.63;;;13.30;;
2656;SDS011;1338;48.176;11.792;2023-02-28T10:49:12;16.63;;;12.30;;
2656;SDS011;1338;48.176;11.792;2023-02-28T10:51:43;16.13;;;12.20;;
2656;SDS011;1338;48.176;11.792;2023-02-28T10:54:16;17.53;;;13.83;;
2656;SDS011;1338;48.176;11.792;2023-02-28T10:56:59;16.63;;;12.13;;
2656;SDS011;1338;48.176;11.792;2023-02-28T10:59:35;18.50;;;14.50;;
2656;SDS011;1338;48.176;11.792;2023-02-28T11:02:09;18.93;;;14.50;;
2656;SDS011;1338;48.176;11.792;2023-02-28T11:04:59;18.50;;;13.93;;
2656;SDS011;1338;48.176;11.792;2023-02-28T11:07:27;17.60;;;13.70;;
2656;SDS011;1338;48.176;11.792;2023-02-28T11:10:17;16.40;;;13.40;;
2656;SDS011;1338;48.176;11.792;2023-02-28T11:12:48;15.50;;;12.67;;
2656;SDS011;1338;48.176;11.792;2023-02-28T11:15:21;18.00;;;13.17;;
2656;SDS011;1338;48.176;11.792;2023-02-28T11:17:56;16.37;;;12.70;;
2656;SDS011;1338;48.176;11.792;2023-02-28T11:20:26;14.30;;;11.93;;
2656;SDS011;1338;48.176;11.792;2023-02-28T11:22:57;16.10;;;13.23;;
2656;SDS011;1338;48.176;11.792;2023-02-28T11:25:29;14.87;;;13.27;;
2656;SDS011;1338;48.176;11.792;2023-02-28T11:27:59;13.47;;;11.67;;
2656;SDS011;1338;48.176;11.792;2023-02-28T11:30:35;16.23;;;12.53;;
2656;SDS011;1338;48.176;11.792;2023-02-28T11:35:55;16.63;;;13.00;;
2656;SDS011;1338;48.176;11.792;2023-02-28T11:38:26;16.97;;;13.60;;
2656;SDS011;1338;48.176;11.792;2023-02-28T11:41:02;17.07;;;14.17;;
2656;SDS011;1338;48.176;11.792;2023-02-28T11:43:44;14.80;;;12.53;;
2656;SDS011;1338;48.176;11.792;2023-02-28T11:46:25;15.60;;;13.00;;
2656;SDS011;1338;48.176;11.792;2023-02-28T11:49:05;14.07;;;12.20;;
2656;SDS011;1338;48.176;11.792;2023-02-28T11:51:47;16.57;;;12.83;;
2656;SDS011;1338;48.176;11.792;2023-02-28T11:54:28;20.20;;;14.10;;
2656;SDS011;1338;48.176;11.792;2023-02-28T11:57:03;17.97;;;13.53;;
2656;SDS011;1338;48.176;11.792;2023-02-28T11:59:48;15.70;;;13.47;;
2656;SDS011;1338;48.176;11.792;2023-02-28T12:02:24;15.40;;;12.70;;
2656;SDS011;1338;48.176;11.792;2023-02-28T12:07:53;14.40;;;12.33;;
2656;SDS011;1338;48.176;11.792;2023-02-28T12:10:29;15.90;;;13.33;;
2656;SDS011;1338;48.176;11.792;2023-02-28T12:13:06;16.10;;;12.50;;
2656;SDS011;1338;48.176;11.792;2023-02-28T12:15:53;17.27;;;13.23;;
2656;SDS011;1338;48.176;11.792;2023-02-28T12:18:39;14.80;;;11.57;;
2656;SDS011;1338;48.176;11.792;2023-02-28T12:21:21;14.73;;;11.80;;
2656;SDS011;1338;48.176;11.792;2023-02-28T12:24:01;13.43;;;11.43;;
2656;SDS011;1338;48.176;11.792;2023-02-28T12:26:42;13.80;;;11.73;;
2656;SDS011;1338;48.176;11.792;2023-02-28T12:29:15;13.80;;;10.77;;
2656;SDS011;1338;48.176;11.792;2023-02-28T12:31:47;14.93;;;12.83;;
2656;SDS011;1338;48.176;11.792;2023-02-28T12:34:20;14.83;;;12.57;;
2656;SDS011;1338;48.176;11.792;2023-02-28T12:36:54;15.33;;;13.20;;
2656;SDS011;1338;48.176;11.792;2023-02-28T12:39:28;15.80;;;13.00;;
2656;SDS011;1338;48.176;11.792;2023-02-28T12:42:16;13.53;;;12.10;;
2656;SDS011;1338;48.176;11.792;2023-02-28T12:44:48;17.57;;;14.60;;
2656;SDS011;1338;48.176;11.792;2023-02-28T12:47:21;14.07;;;11.40;;
2656;SDS011;1338;48.176;11.792;2023-02-28T12:49:52;14.33;;;12.50;;
2656;SDS011;1338;48.176;11.792;2023-02-28T12:52:31;14.27;;;12.40;;
2656;SDS011;1338;48.176;11.792;2023-02-28T12:55:11;14.27;;;11.90;;
2656;SDS011;1338;48.176;11.792;2023-02-28T12:57:46;13.67;;;12.10;;
2656;SDS011;1338;48.176;11.792;2023-02-28T13:00:20;14.87;;;11.90;;
2656;SDS011;1338;48.176;11.792;2023-02-28T13:06:05;15.47;;;13.40;;
2656;SDS011;1338;48.176;11.792;2023-02-28T13:08:59;17.83;;;13.00;;
2656;SDS011;1338;48.176;11.792;2023-02-28T13:11:31;14.60;;;12.23;;
2656;SDS011;1338;48.176;11.792;2023-02-28T13:14:02;13.07;;;11.77;;
2656;SDS011;1338;48.176;11.792;2023-02-28T13:19:23;12.87;;;11.53;;
2656;SDS011;1338;48.176;11.792;2023-02-28T13:21:53;17.23;;;12.20;;
2656;SDS011;1338;48.176;11.792;2023-02-28T13:24:44;14.13;;;11.80;;
2656;SDS011;1338;48.176;11.792;2023-02-28T13:27:21;12.63;;;10.07;;
2656;SDS011;1338;48.176;11.792;2023-02-28T13:29:52;16.07;;;12.10;;
2656;SDS011;1338;48.176;11.792;2023-02-28T13:38:16;12.43;;;10.63;;
2656;SDS011;1338;48.176;11.792;2023-02-28T13:44:04;13.70;;;10.93;;
2656;SDS011;1338;48.176;11.792;2023-02-28T13:46:34;13.50;;;11.57;;
2656;SDS011;1338;48.176;11.792;2023-02-28T13:49:19;15.80;;;11.67;;
2656;SDS011;1338;48.176;11.792;2023-02-28T13:51:52;14.23;;;12.73;;
2656;SDS011;1338;48.176;11.792;2023-02-28T13:54:35;12.40;;;11.10;;
2656;SDS011;1338;48.176;11.792;2023-02-28T13:57:17;12.53;;;11.23;;
2656;SDS011;1338;48.176;11.792;2023-02-28T13:59:56;12.80;;;10.53;;
2656;SDS011;1338;48.176;11.792;2023-02-28T14:02:42;13.47;;;12.03;;
2656;SDS011;1338;48.176;11.792;2023-02-28T14:05:20;14.63;;;12.53;;
2656;SDS011;1338;48.176;11.792;2023-02-28T14:07:52;13.77;;;11.17;;
2656;SDS011;1338;48.176;11.792;2023-02-28T14:10:25;13.37;;;11.67;;
2656;SDS011;1338;48.176;11.792;2023-02-28T14:12:57;13.30;;;11.67;;
2656;SDS011;1338;48.176;11.792;2023-02-28T14:15:54;14.07;;;12.13;;
2656;SDS011;1338;48.176;11.792;2023-02-28T14:18:25;13.67;;;11.47;;
2656;SDS011;1338;48.176;11.792;2023-02-28T14:27:05;12.60;;;10.77;;
2656;SDS011;1338;48.176;11.792;2023-02-28T14:32:59;12.47;;;10.33;;
2656;SDS011;1338;48.176;11.792;2023-02-28T14:35:48;12.47;;;10.63;;
2656;SDS011;1338;48.176;11.792;2023-02-28T14:38:27;14.17;;;11.10;;
2656;SDS011;1338;48.176;11.792;2023-02-28T14:40:58;14.20;;;12.63;;
2656;SDS011;1338;48.176;11.792;2023-02-28T14:43:30;13.50;;;12.10;;
2656;SDS011;1338;48.176;11.792;2023-02-28T14:45:59;11.77;;;10.57;;
2656;SDS011;1338;48.176;11.792;2023-02-28T14:48:30;12.70;;;10.60;;
2656;SDS011;1338;48.176;11.792;2023-02-28T14:50:58;12.50;;;11.10;;
2656;SDS011;1338;48.176;11.792;2023-02-28T14:53:28;11.27;;;10.07;;
2656;SDS011;1338;48.176;11.792;2023-02-28T14:55:58;13.67;;;12.13;;
2656;SDS011;1338;48.176;11.792;2023-02-28T14:58:27;12.60;;;10.67;;
2656;SDS011;1338;48.176;11.792;2023-02-28T15:00:57;15.23;;;12.80;;
2656;SDS011;1338;48.176;11.792;2023-02-28T15:03:29;14.07;;;12.67;;
2656;SDS011;1338;48.176;11.792;2023-02-28T15:06:00;15.70;;;12.60;;
2656;SDS011;1338;48.176;11.792;2023-02-28T15:08:30;13.80;;;11.63;;
2656;SDS011;1338;48.176;11.792;2023-02-28T15:11:03;13.10;;;11.67;;
2656;SDS011;1338;48.176;11.792;2023-02-28T15:13:34;13.67;;;12.23;;
2656;SDS011;1338;48.176;11.792;2023-02-28T15:16:05;11.93;;;10.77;;
2656;SDS011;1338;48.176;11.792;2023-02-28T15:18:41;14.10;;;11.70;;
2656;SDS011;1338;48.176;11.792;2023-02-28T15:21:13;11.57;;;10.37;;
2656;SDS011;1338;48.176;11.792;2023-02-28T15:23:45;14.10;;;12.07;;
2656;SDS011;1338;48.176;11.792;2023-02-28T15:26:16;14.37;;;11.37;;
2656;SDS011;1338;48.176;11.792;2023-02-28T15:28:48;14.70;;;12.00;;
2656;SDS011;1338;48.176;11.792;2023-02-28T15:31:21;11.30;;;10.10;;
2656;SDS011;1338;48.176;11.792;2023-02-28T15:33:56;12.50;;;11.13;;
2656;SDS011;1338;48.176;11.792;2023-02-28T15:36:26;12.63;;;11.13;;
2656;SDS011;1338;48.176;11.792;2023-02-28T15:38:58;11.73;;;10.53;;
2656;SDS011;1338;48.176;11.792;2023-02-28T15:41:41;12.20;;;10.90;;
2656;SDS011;1338;48.176;11.792;2023-02-28T15:44:24;13.80;;;11.27;;
2656;SDS011;1338;48.176;11.792;2023-02-28T15:46:59;12.10;;;10.90;;
2656;SDS011;1338;48.176;11.792;2023-02-28T15:49:33;15.20;;;11.70;;
2656;SDS011;1338;48.176;11.792;2023-02-28T15:52:12;14.80;;;12.27;;
2656;SDS011;1338;48.176;11.792;2023-02-28T15:54:43;12.33;;;10.73;;
2656;SDS011;1338;48.176;11.792;2023-02-28T15:57:13;13.30;;;11.90;;
2656;SDS011;1338;48.176;11.792;2023-02-28T15:59:48;15.03;;;12.33;;
2656;SDS011;1338;48.176;11.792;2023-02-28T16:02:20;13.20;;;11.57;;